sensor_id;sensor_type;location;lat;lon;timestamp;P1;durP1;ratioP1;P2;durP2;ratioP2
4106;SDS011;21906;50.812;7.132;2023-03-14T18:31:30;4.73;;;1.83;;
4106;SDS011;21906;50.812;7.132;2023-03-14T18:33:58;5.07;;;2.00;;
4106;SDS011;21906;50.812;7.132;2023-03-14T18:36:24;2.97;;;1.60;;
4106;SDS011;21906;50.812;7.132;2023-03-14T18:38:51;5.83;;;1.90;;
4106;SDS011;21906;50.812;7.132;2023-03-14T18:41:20;4.23;;;1.90;;
4106;SDS011;21906;50.812;7.132;2023-03-14T18:43:50;5.73;;;1.70;;
4106;SDS011;21906;50.812;7.132;2023-03-14T18:46:17;3.40;;;1.60;;
4106;SDS011;21906;50.812;7.132;2023-03-14T18:48:44;8.20;;;1.70;;
4106;SDS011;21906;50.812;7.132;2023-03-14T18:51:11;6.20;;;2.57;;
4106;SDS011;21906;50.812;7.132;2023-03-14T18:53:39;5.73;;;1.90;;
4106;SDS011;21906;50.812;7.132;2023-03-14T18:56:09;4.33;;;2.37;;
4106;SDS011;21906;50.812;7.132;2023-03-14T18:58:37;8.50;;;2.07;;
4106;SDS011;21906;50.812;7.132;2023-03-14T19:01:03;3.67;;;1.67;;
4106;SDS011;21906;50.812;7.132;2023-03-14T19:03:29;7.27;;;2.60;;
4106;SDS011;21906;50.812;7.132;2023-03-14T19:05:56;4.10;;;2.13;;
4106;SDS011;21906;50.812;7.132;2023-03-14T19:08:23;3.93;;;1.87;;
4106;SDS011;21906;50.812;7.132;2023-03-14T19:10:50;7.97;;;1.80;;
4106;SDS011;21906;50.812;7.132;2023-03-14T19:13:18;4.33;;;1.90;;
4106;SDS011;21906;50.812;7.132;2023-03-14T19:15:45;7.00;;;1.80;;
4106;SDS011;21906;50.812;7.132;2023-03-14T19:18:10;4.43;;;2.00;;
4106;SDS011;21906;50.812;7.132;2023-03-14T19:20:37;3.80;;;1.70;;
4106;SDS011;21906;50.812;7.132;2023-03-14T19:23:03;4.90;;;1.60;;
4106;SDS011;21906;50.812;7.132;2023-03-14T19:25:29;4.40;;;1.70;;
4106;SDS011;21906;50.812;7.132;2023-03-14T19:27:55;3.73;;;1.70;;
4106;SDS011;21906;50.812;7.132;2023-03-14T19:30:20;3.30;;;2.13;;
4106;SDS011;21906;50.812;7.132;2023-03-14T19:32:46;5.03;;;1.67;;
4106;SDS011;21906;50.812;7.132;2023-03-14T19:35:12;6.20;;;2.10;;
4106;SDS011;21906;50.812;7.132;2023-03-14T19:37:38;5.53;;;1.80;;
4106;SDS011;21906;50.812;7.132;2023-03-14T19:40:04;9.00;;;2.30;;
4106;SDS011;21906;50.812;7.132;2023-03-14T19:42:33;2.33;;;1.70;;
4106;SDS011;21906;50.812;7.132;2023-03-14T19:44:58;7.20;;;1.83;;
4106;SDS011;21906;50.812;7.132;2023-03-14T19:47:24;5.03;;;1.80;;
4106;SDS011;21906;50.812;7.132;2023-03-14T19:49:50;5.70;;;1.80;;
4106;SDS011;21906;50.812;7.132;2023-03-14T19:52:15;5.80;;;1.70;;
4106;SDS011;21906;50.812;7.132;2023-03-14T19:54:42;6.13;;;1.70;;
4106;SDS011;21906;50.812;7.132;2023-03-14T19:57:08;6.53;;;1.83;;
4106;SDS011;21906;50.812;7.132;2023-03-14T19:59:33;5.13;;;1.83;;
4106;SDS011;21906;50.812;7.132;2023-03-14T20:01:59;4.90;;;1.93;;
4106;SDS011;21906;50.812;7.132;2023-03-14T20:04:25;6.00;;;1.80;;
4106;SDS011;21906;50.812;7.132;2023-03-14T20:06:51;3.40;;;2.00;;
4106;SDS011;21906;50.812;7.132;2023-03-14T20:09:20;4.40;;;1.73;;
4106;SDS011;21906;50.812;7.132;2023-03-14T20:11:46;2.87;;;1.40;;
4106;SDS011;21906;50.812;7.132;2023-03-14T20:14:12;5.60;;;1.80;;
4106;SDS011;21906;50.812;7.132;2023-03-14T20:16:41;3.60;;;1.50;;
4106;SDS011;21906;50.812;7.132;2023-03-14T20:19:08;4.73;;;1.40;;
4106;SDS011;21906;50.812;7.132;2023-03-14T20:21:36;7.33;;;1.70;;
4106;SDS011;21906;50.812;7.132;2023-03-14T20:24:02;4.03;;;1.50;;
4106;SDS011;21906;50.812;7.132;2023-03-14T20:26:29;4.43;;;1.60;;
4106;SDS011;21906;50.812;7.132;2023-03-14T20:28:55;5.30;;;1.57;;
4106;SDS011;21906;50.812;7.132;2023-03-14T20:31:21;5.10;;;1.70;;
4106;SDS011;21906;50.812;7.132;2023-03-14T20:33:47;6.07;;;1.80;;
4106;SDS011;21906;50.812;7.132;2023-03-14T20:36:13;5.53;;;1.50;;
4106;SDS011;21906;50.812;7.132;2023-03-14T20:38:38;4.37;;;1.73;;
4106;SDS011;21906;50.812;7.132;2023-03-14T20:41:04;3.90;;;1.60;;
4106;SDS011;21906;50.812;7.132;2023-03-14T20:43:31;2.33;;;1.37;;
4106;SDS011;21906;50.812;7.132;2023-03-14T20:45:58;5.77;;;2.00;;
4106;SDS011;21906;50.812;7.132;2023-03-14T20:48:25;5.73;;;3.07;;
4106;SDS011;21906;50.812;7.132;2023-03-14T20:50:51;6.80;;;1.77;;
4106;SDS011;21906;50.812;7.132;2023-03-14T20:53:17;7.10;;;2.10;;
4106;SDS011;21906;50.812;7.132;2023-03-14T20:55:44;8.30;;;2.87;;
4106;SDS011;21906;50.812;7.132;2023-03-14T20:58:10;4.10;;;1.70;;
4106;SDS011;21906;50.812;7.132;2023-03-14T21:00:37;7.07;;;1.87;;
4106;SDS011;21906;50.812;7.132;2023-03-14T21:03:04;7.60;;;1.63;;
4106;SDS011;21906;50.812;7.132;2023-03-14T21:05:31;3.83;;;1.80;;
4106;SDS011;21906;50.812;7.132;2023-03-14T21:07:57;3.80;;;1.53;;
4106;SDS011;21906;50.812;7.132;2023-03-14T21:10:23;5.13;;;1.70;;
4106;SDS011;21906;50.812;7.132;2023-03-14T21:12:48;2.90;;;1.60;;
4106;SDS011;21906;50.812;7.132;2023-03-14T21:15:14;7.80;;;2.37;;
4106;SDS011;21906;50.812;7.132;2023-03-14T21:17:40;3.67;;;1.80;;
4106;SDS011;21906;50.812;7.132;2023-03-14T21:20:10;9.27;;;2.30;;
4106;SDS011;21906;50.812;7.132;2023-03-14T21:22:37;6.23;;;1.90;;
4106;SDS011;21906;50.812;7.132;2023-03-14T21:25:03;3.40;;;1.70;;
4106;SDS011;21906;50.812;7.132;2023-03-14T21:27:29;4.87;;;2.33;;
4106;SDS011;21906;50.812;7.132;2023-03-14T21:29:55;3.73;;;2.00;;
4106;SDS011;21906;50.812;7.132;2023-03-14T21:32:21;3.53;;;1.50;;
4106;SDS011;21906;50.812;7.132;2023-03-14T21:34:47;5.40;;;2.23;;
4106;SDS011;21906;50.812;7.132;2023-03-14T21:37:13;4.93;;;2.20;;
4106;SDS011;21906;50.812;7.132;2023-03-14T21:39:40;4.90;;;2.90;;
4106;SDS011;21906;50.812;7.132;2023-03-14T21:42:06;4.87;;;2.40;;
4106;SDS011;21906;50.812;7.132;2023-03-14T21:44:33;5.23;;;2.30;;
4106;SDS011;21906;50.812;7.132;2023-03-14T21:47:05;5.77;;;2.30;;
4106;SDS011;21906;50.812;7.132;2023-03-14T21:49:32;4.20;;;2.27;;
4106;SDS011;21906;50.812;7.132;2023-03-14T21:52:05;7.57;;;3.07;;
4106;SDS011;21906;50.812;7.132;2023-03-14T21:54:32;7.00;;;3.17;;
4106;SDS011;21906;50.812;7.132;2023-03-14T21:56:59;4.10;;;2.30;;
4106;SDS011;21906;50.812;7.132;2023-03-14T21:59:25;6.40;;;3.00;;
4106;SDS011;21906;50.812;7.132;2023-03-14T22:01:50;7.03;;;2.90;;
4106;SDS011;21906;50.812;7.132;2023-03-14T22:04:20;5.60;;;2.20;;
4106;SDS011;21906;50.812;7.132;2023-03-14T22:06:50;4.33;;;2.17;;
4106;SDS011;21906;50.812;7.132;2023-03-14T22:09:16;7.77;;;2.30;;
4106;SDS011;21906;50.812;7.132;2023-03-14T22:11:42;3.53;;;2.10;;
4106;SDS011;21906;50.812;7.132;2023-03-14T22:14:08;3.90;;;2.10;;
4106;SDS011;21906;50.812;7.132;2023-03-14T22:16:34;8.07;;;2.43;;
4106;SDS011;21906;50.812;7.132;2023-03-14T22:18:59;4.00;;;2.50;;
4106;SDS011;21906;50.812;7.132;2023-03-14T22:21:25;3.00;;;2.60;;
4106;SDS011;21906;50.812;7.132;2023-03-14T22:23:51;5.50;;;2.60;;
4106;SDS011;21906;50.812;7.132;2023-03-14T22:26:16;5.23;;;2.40;;
4106;SDS011;21906;50.812;7.132;2023-03-14T22:28:42;3.93;;;2.60;;
4106;SDS011;21906;50.812;7.132;2023-03-14T22:31:08;10.43;;;2.67;;
4106;SDS011;21906;50.812;7.132;2023-03-14T22:33:34;5.87;;;2.80;;
4106;SDS011;21906;50.812;7.132;2023-03-14T22:36:00;3.20;;;2.63;;
4106;SDS011;21906;50.812;7.132;2023-03-14T22:38:26;7.53;;;2.70;;
4106;SDS011;21906;50.812;7.132;2023-03-14T22:40:51;5.70;;;3.73;;
4106;SDS011;21906;50.812;7.132;2023-03-14T22:43:17;5.40;;;2.80;;
4106;SDS011;21906;50.812;7.132;2023-03-14T22:45:43;6.03;;;3.30;;
4106;SDS011;21906;50.812;7.132;2023-03-14T22:48:09;7.77;;;3.00;;
4106;SDS011;21906;50.812;7.132;2023-03-14T22:50:38;7.03;;;3.47;;
4106;SDS011;21906;50.812;7.132;2023-03-14T22:53:04;5.83;;;3.10;;
4106;SDS011;21906;50.812;7.132;2023-03-14T22:55:30;9.53;;;3.57;;
4106;SDS011;21906;50.812;7.132;2023-03-14T22:57:56;5.07;;;3.23;;
4106;SDS011;21906;50.812;7.132;2023-03-14T23:00:22;6.77;;;2.80;;
4106;SDS011;21906;50.812;7.132;2023-03-14T23:02:48;9.90;;;2.77;;
4106;SDS011;21906;50.812;7.132;2023-03-14T23:05:14;5.60;;;2.90;;
4106;SDS011;21906;50.812;7.132;2023-03-14T23:07:40;5.10;;;3.10;;
4106;SDS011;21906;50.812;7.132;2023-03-14T23:10:06;6.40;;;2.60;;
4106;SDS011;21906;50.812;7.132;2023-03-14T23:12:32;6.70;;;3.23;;
4106;SDS011;21906;50.812;7.132;2023-03-14T23:14:58;5.77;;;3.30;;
4106;SDS011;21906;50.812;7.132;2023-03-14T23:17:23;4.27;;;2.90;;
4106;SDS011;21906;50.812;7.132;2023-03-14T23:19:49;6.40;;;2.77;;
4106;SDS011;21906;50.812;7.132;2023-03-14T23:22:17;4.93;;;3.03;;
4106;SDS011;21906;50.812;7.132;2023-03-14T23:24:43;5.83;;;3.10;;
4106;SDS011;21906;50.812;7.132;2023-03-14T23:27:12;6.50;;;2.90;;
4106;SDS011;21906;50.812;7.132;2023-03-14T23:29:39;6.53;;;2.87;;
4106;SDS011;21906;50.812;7.132;2023-03-14T23:32:05;4.70;;;2.73;;
4106;SDS011;21906;50.812;7.132;2023-03-14T23:34:31;6.60;;;2.73;;
4106;SDS011;21906;50.812;7.132;2023-03-14T23:36:56;5.40;;;2.70;;
4106;SDS011;21906;50.812;7.132;2023-03-14T23:39:22;5.80;;;2.60;;
4106;SDS011;21906;50.812;7.132;2023-03-14T23:41:48;4.47;;;2.50;;
4106;SDS011;21906;50.812;7.132;2023-03-14T23:44:13;9.77;;;3.20;;
4106;SDS011;21906;50.812;7.132;2023-03-14T23:46:39;5.13;;;2.50;;
4106;SDS011;21906;50.812;7.132;2023-03-14T23:49:05;5.67;;;2.57;;
4106;SDS011;21906;50.812;7.132;2023-03-14T23:51:30;6.80;;;3.00;;
4106;SDS011;21906;50.812;7.132;2023-03-14T23:53:56;5.50;;;2.60;;
4106;SDS011;21906;50.812;7.132;2023-03-14T23:56:21;4.87;;;2.40;;
4106;SDS011;21906;50.812;7.132;2023-03-14T23:58:47;2.60;;;2.20;;
